Date,TemperatureHighF,TemperatureAvgF,TemperatureLowF,DewpointHighF,DewpointAvgF,DewpointLowF,HumidityHigh,HumidityAvg,HumidityLow,PressureMaxIn,PressureMinIn,WindSpeedMaxMPH,WindSpeedAvgMPH,GustSpeedMaxMPH,PrecipitationSumIn
2013-5-1,73,58,45,42,35,32,66,45,25,30.46,30.33,6,1,13,0.00
2013-5-2,74,58,43,47,43,40,89,61,34,30.47,30.33,4,0,9,0.00
2013-5-3,71,57,46,46,42,35,86,60,32,30.42,30.33,6,1,13,0.00
2013-5-4,72,56,42,49,42,38,93,64,32,30.37,30.20,10,1,11,0.00
2013-5-5,69,53,40,43,40,37,88,64,36,30.29,30.18,8,1,10,0.00
2013-5-6,67,54,42,54,48,38,94,79,65,30.25,30.12,8,1,11,0.00
2013-5-7,71,60,52,62,56,50,95,85,64,30.14,30.02,10,2,15,0.17
2013-5-8,74,62,54,61,56,51,96,83,51,30.04,29.91,5,1,10,0.20
2013-5-9,69,60,51,59,55,50,96,84,67,30.00,29.93,4,0,10,0.04
2013-5-10,83,67,53,62,58,52,97,75,40,30.03,29.88,7,0,12,0.64
2013-5-11,75,64,60,65,61,56,98,90,65,29.91,29.72,5,1,15,0.28
2013-5-12,59,55,48,56,38,27,91,57,31,30.02,29.74,12,3,20,0.00
2013-5-13,53,46,39,33,29,24,75,52,33,30.18,30.01,7,2,12,0.00
2013-5-14,59,48,34,47,31,26,93,56,29,30.23,30.07,8,1,13,0.04
2013-5-15,76,59,49,60,52,44,92,79,58,30.09,29.72,3,0,15,0.05
2013-5-16,82,69,58,66,58,49,98,72,36,29.91,29.75,7,1,10,0.13
2013-5-17,76,67,53,49,43,38,65,43,28,30.18,29.91,7,2,13,0.00
2013-5-18,69,62,58,57,52,44,95,70,48,30.26,30.18,6,1,6,0.02
2013-5-19,66,61,57,62,59,55,97,94,86,30.26,30.14,3,0,7,0.02
2013-5-20,84,70,61,68,65,61,99,85,56,30.16,29.98,4,0,9,0.00
2013-5-21,88,74,63,72,68,63,99,81,58,29.99,29.86,5,0,9,0.00
2013-5-22,93,76,65,72,67,61,98,76,38,29.92,29.81,5,1,14,0.00
2013-5-23,79,70,61,71,65,60,96,86,71,29.89,29.74,9,1,13,0.34
2013-5-24,62,54,46,61,48,36,97,80,62,30.12,29.73,11,4,22,0.08
2013-5-25,62,53,44,36,34,29,70,51,31,30.14,30.05,21,5,27,0.00
2013-5-26,69,58,47,38,36,32,65,45,29,30.18,30.11,10,4,17,0.00
2013-5-28,65,64,62,63,62,61,97,94,91,30.12,30.10,2,0,5,0.25
2013-5-29,88,74,61,69,64,61,99,73,43,30.11,30.05,8,1,13,0.00
2013-5-30,91,79,67,69,66,63,88,67,40,30.17,30.10,6,1,9,0.00
2013-5-31,94,80,67,70,66,57,90,65,31,30.14,30.01,9,1,11,0.00